createdAt,value
2023-03-26T00:00:29.322Z,100.00
2023-03-26T00:05:35.068Z,100.00
2023-03-26T00:10:40.154Z,100.00
2023-03-26T00:15:42.046Z,100.00
2023-03-26T00:20:46.654Z,100.00
2023-03-26T00:25:50.933Z,100.00
2023-03-26T00:31:04.841Z,100.00
2023-03-26T00:36:14.688Z,100.00
2023-03-26T00:41:22.776Z,100.00
2023-03-26T00:46:26.260Z,100.00
2023-03-26T00:51:28.967Z,100.00
2023-03-26T00:56:30.890Z,100.00
2023-03-26T01:01:32.769Z,100.00
2023-03-26T01:06:37.993Z,100.00
2023-03-26T01:11:39.775Z,100.00
2023-03-26T01:16:47.900Z,100.00
2023-03-26T01:21:49.597Z,100.00
2023-03-26T01:27:10.021Z,100.00
2023-03-26T01:32:38.066Z,100.00
2023-03-26T01:37:52.569Z,100.00
2023-03-26T01:43:24.524Z,100.00
2023-03-26T01:48:36.852Z,100.00
2023-03-26T01:53:43.666Z,100.00
2023-03-26T01:59:07.450Z,100.00
2023-03-26T02:04:24.751Z,100.00
2023-03-26T02:09:31.110Z,100.00
2023-03-26T02:14:32.783Z,100.00
2023-03-26T02:19:34.618Z,100.00
2023-03-26T02:24:36.327Z,100.00
2023-03-26T02:29:39.958Z,100.00
2023-03-26T02:34:42.320Z,100.00
2023-03-26T02:39:46.302Z,100.00
2023-03-26T02:44:47.993Z,100.00
2023-03-26T02:49:49.682Z,100.00
2023-03-26T02:54:51.733Z,100.00
2023-03-26T02:59:53.527Z,100.00
2023-03-26T03:05:01.618Z,100.00
2023-03-26T03:10:08.774Z,100.00
2023-03-26T03:15:13.158Z,100.00
2023-03-26T03:20:15.661Z,100.00
2023-03-26T03:25:26.171Z,100.00
2023-03-26T03:30:29.933Z,100.00
2023-03-26T03:35:31.964Z,100.00
2023-03-26T03:40:33.757Z,100.00
2023-03-26T03:45:35.698Z,100.00
2023-03-26T03:50:38.633Z,100.00
2023-03-26T03:55:43.983Z,100.00
2023-03-26T04:00:52.918Z,100.00
2023-03-26T04:05:55.667Z,100.00
2023-03-26T04:10:57.492Z,100.00
2023-03-26T04:15:59.547Z,100.00
2023-03-26T04:21:05.277Z,100.00
2023-03-26T04:26:10.535Z,100.00
2023-03-26T04:31:20.184Z,100.00
2023-03-26T04:36:28.647Z,100.00
2023-03-26T04:41:30.387Z,100.00
2023-03-26T04:46:33.735Z,100.00
2023-03-26T04:51:41.772Z,100.00
2023-03-26T04:57:03.596Z,100.00
2023-03-26T05:02:06.247Z,100.00
2023-03-26T05:07:09.707Z,100.00
2023-03-26T05:12:11.416Z,100.00
2023-03-26T05:17:15.368Z,100.00
2023-03-26T05:22:17.163Z,100.00
2023-03-26T05:27:21.994Z,100.00
2023-03-26T05:32:23.830Z,100.00
2023-03-26T05:37:32.000Z,100.00
2023-03-26T05:42:33.746Z,100.00
2023-03-26T05:47:35.593Z,100.00
2023-03-26T05:52:39.926Z,100.00
2023-03-26T05:57:42.854Z,100.00
2023-03-26T06:02:46.504Z,100.00
2023-03-26T06:08:05.854Z,100.00
2023-03-26T06:13:07.646Z,100.00
2023-03-26T06:18:09.842Z,100.00
2023-03-26T06:23:11.722Z,100.00
2023-03-26T06:28:13.943Z,100.00
2023-03-26T06:33:15.767Z,100.00
2023-03-26T06:38:17.480Z,100.00
2023-03-26T06:43:24.640Z,100.00
2023-03-26T06:48:39.718Z,100.00
2023-03-26T06:53:41.649Z,100.00
2023-03-26T06:58:43.414Z,100.00
2023-03-26T07:03:45.273Z,100.00
2023-03-26T07:08:47.096Z,100.00
2023-03-26T07:13:48.765Z,100.00
2023-03-26T07:18:51.039Z,100.00
2023-03-26T07:23:55.044Z,100.00
2023-03-26T07:29:24.233Z,100.00
2023-03-26T07:35:14.920Z,100.00
2023-03-26T07:40:43.826Z,100.00
2023-03-26T07:45:46.248Z,100.00
2023-03-26T07:50:52.152Z,100.00
2023-03-26T07:56:03.402Z,100.00
2023-03-26T08:01:28.175Z,100.00
2023-03-26T08:06:41.127Z,100.00
2023-03-26T08:12:07.870Z,100.00
2023-03-26T08:17:17.718Z,100.00
2023-03-26T08:22:27.531Z,100.00
2023-03-26T08:27:52.010Z,100.00
2023-03-26T08:33:04.543Z,100.00
2023-03-26T08:38:06.647Z,100.00
2023-03-26T08:43:29.263Z,100.00
2023-03-26T08:48:33.842Z,100.00
2023-03-26T08:53:49.949Z,100.00
2023-03-26T08:59:25.303Z,100.00
2023-03-26T09:04:53.963Z,100.00
2023-03-26T09:10:15.804Z,100.00
2023-03-26T09:15:58.712Z,100.00
2023-03-26T09:21:32.964Z,100.00
2023-03-26T09:26:37.489Z,100.00
2023-03-26T09:32:00.308Z,100.00
2023-03-26T09:37:24.643Z,100.00
2023-03-26T09:43:01.463Z,100.00
2023-03-26T09:48:24.141Z,100.00
2023-03-26T09:54:06.361Z,99.79
2023-03-26T09:59:22.258Z,95.68
2023-03-26T10:05:02.400Z,95.99
2023-03-26T10:10:33.596Z,94.01
2023-03-26T10:15:57.931Z,95.54
2023-03-26T10:21:12.651Z,92.95
2023-03-26T10:26:38.942Z,94.81
2023-03-26T10:31:46.785Z,91.89
2023-03-26T10:37:12.826Z,91.23
2023-03-26T10:42:37.272Z,89.81
2023-03-26T10:48:14.989Z,89.90
2023-03-26T10:53:22.841Z,89.13
2023-03-26T10:58:29.232Z,90.36
2023-03-26T11:03:56.753Z,90.05
2023-03-26T11:09:35.072Z,88.77
2023-03-26T11:14:59.721Z,88.90
2023-03-26T11:20:20.083Z,85.85
2023-03-26T11:25:55.742Z,87.33
2023-03-26T11:31:19.801Z,86.70
2023-03-26T11:36:26.342Z,85.88
2023-03-26T11:41:32.561Z,85.23
2023-03-26T11:46:39.306Z,83.99
2023-03-26T11:51:59.345Z,83.95
2023-03-26T11:57:07.906Z,83.71
2023-03-26T12:02:09.892Z,83.22
2023-03-26T12:07:22.767Z,82.87
2023-03-26T12:12:31.517Z,80.25
2023-03-26T12:17:36.890Z,81.48
2023-03-26T12:23:12.234Z,82.19
2023-03-26T12:28:14.296Z,80.03
2023-03-26T12:33:22.428Z,80.81
2023-03-26T12:38:33.499Z,78.88
2023-03-26T12:44:48.417Z,78.02
2023-03-26T12:49:22.232Z,76.06
2023-03-26T12:54:53.746Z,76.81
2023-03-26T13:00:27.446Z,76.95
2023-03-26T13:05:47.576Z,74.96
2023-03-26T13:11:12.197Z,75.28
2023-03-26T13:22:18.197Z,75.39
2023-03-26T13:27:19.886Z,74.97
2023-03-26T13:32:39.641Z,76.38
2023-03-26T13:37:54.606Z,75.56
2023-03-26T13:43:38.222Z,76.05
2023-03-26T13:49:13.318Z,75.06
2023-03-26T13:54:27.061Z,72.57
2023-03-26T13:59:49.833Z,74.64
2023-03-26T14:04:58.236Z,74.51
2023-03-26T14:10:26.622Z,72.14
2023-03-26T14:15:58.100Z,72.63
2023-03-26T14:21:24.475Z,71.87
2023-03-26T14:26:44.537Z,71.01
2023-03-26T14:32:30.968Z,70.13
2023-03-26T14:43:54.308Z,69.68
2023-03-26T14:49:27.197Z,71.86
2023-03-26T14:54:47.950Z,70.73
2023-03-26T15:00:16.709Z,71.83
2023-03-26T15:06:16.308Z,73.36
2023-03-26T15:11:51.855Z,73.53
2023-03-26T15:23:03.985Z,72.47
2023-03-26T15:28:40.844Z,72.12
2023-03-26T15:33:59.565Z,72.86
2023-03-26T15:39:07.088Z,72.11
2023-03-26T15:44:53.538Z,70.75
2023-03-26T15:50:02.572Z,70.16
2023-03-26T15:55:16.269Z,68.73
2023-03-26T16:01:24.553Z,69.63
2023-03-26T16:06:51.750Z,75.23
2023-03-26T16:11:57.196Z,76.77
2023-03-26T16:17:06.357Z,77.48
2023-03-26T16:22:43.041Z,75.70
2023-03-26T16:27:45.740Z,75.64
2023-03-26T16:33:31.591Z,74.07
2023-03-26T16:39:12.665Z,71.31
2023-03-26T16:44:40.303Z,69.72
2023-03-26T16:50:07.779Z,70.31
2023-03-26T16:55:58.950Z,71.42
2023-03-26T17:07:52.681Z,77.53
2023-03-26T17:13:09.161Z,78.64
2023-03-26T17:18:39.279Z,78.41
2023-03-26T17:24:36.748Z,78.84
2023-03-26T17:30:03.952Z,76.92
2023-03-26T17:35:36.780Z,75.78
2023-03-26T17:41:50.426Z,76.18
2023-03-26T17:46:36.327Z,75.08
2023-03-26T17:51:58.497Z,74.42
2023-03-26T17:57:50.199Z,74.67
2023-03-26T18:09:15.784Z,76.49
2023-03-26T18:21:19.719Z,72.01
2023-03-26T18:26:41.384Z,73.96
2023-03-26T18:32:48.666Z,76.49
2023-03-26T18:43:34.375Z,78.19
2023-03-26T18:48:37.266Z,77.97
2023-03-26T18:54:08.143Z,77.82
2023-03-26T18:59:48.479Z,78.41
2023-03-26T19:04:54.357Z,78.36
2023-03-26T19:09:56.787Z,78.07
2023-03-26T19:15:14.634Z,79.83
2023-03-26T19:20:34.612Z,80.67
2023-03-26T19:25:59.888Z,82.70
2023-03-26T19:31:17.947Z,84.83
2023-03-26T19:42:04.784Z,85.82
2023-03-26T19:47:17.072Z,84.11
2023-03-26T19:52:38.546Z,83.88
2023-03-26T19:57:40.310Z,84.30
2023-03-26T20:02:43.601Z,82.30
2023-03-26T20:07:54.840Z,80.30
2023-03-26T20:12:56.743Z,79.83
2023-03-26T20:18:10.140Z,80.86
2023-03-26T20:23:20.395Z,81.07
2023-03-26T20:28:42.480Z,81.73
2023-03-26T20:33:51.981Z,81.70
2023-03-26T20:39:19.127Z,83.71
2023-03-26T20:49:43.257Z,86.62
2023-03-26T20:54:49.517Z,85.79
2023-03-26T20:59:51.605Z,85.71
2023-03-26T21:16:13.070Z,85.31
2023-03-26T21:21:46.314Z,84.27
2023-03-26T21:27:08.421Z,82.08
2023-03-26T21:32:12.346Z,82.10
2023-03-26T21:37:15.776Z,80.69
2023-03-26T21:42:21.124Z,79.11
2023-03-26T21:47:34.980Z,79.65
2023-03-26T21:53:32.248Z,80.39
2023-03-26T21:58:51.540Z,81.56
2023-03-26T22:03:56.883Z,82.42
2023-03-26T22:09:13.745Z,84.77
2023-03-26T22:20:52.102Z,83.81
2023-03-26T22:25:56.822Z,82.64
2023-03-26T22:36:40.292Z,85.31
2023-03-26T22:41:42.976Z,86.34
2023-03-26T22:47:05.873Z,85.35
2023-03-26T22:52:07.765Z,85.38
2023-03-26T22:57:09.720Z,85.43
2023-03-26T23:02:12.437Z,84.04
2023-03-26T23:07:27.526Z,83.35
2023-03-26T23:19:34.741Z,79.97
2023-03-26T23:24:37.944Z,80.42
2023-03-26T23:29:39.775Z,81.34
2023-03-26T23:34:51.895Z,83.63
2023-03-26T23:40:10.482Z,84.75
2023-03-26T23:45:19.589Z,90.12
2023-03-26T23:50:21.555Z,94.42
2023-03-26T23:55:29.957Z,97.88
